SBI3750 LTAI-UWKD
Flight info
| Callsign | SBI3750 |
|---|---|
| Flight time | 3h 49m |
| Altitude | 35000 |
| Route | TEWHE1K/18L TEWHE UR55 MUT UA285 SIV UW706 TBN UG261 NOLGA DCT LURIS/K0854F350 A955 PINMU DCT KUDAS DCT ITAKA DCT AKT W324 DOKUS M158 LEDGI M161 MOF T793 TONSI TONSI1T |
| Aircraft | A320/M-SDE3FGHIRWY/LB1 |
Departure
| Time | 2026-05-07 14:03 |
|---|---|
| Airport | Antalya International Airport (LTAI) |
Arrival
| Time | 2026-05-07 17:52 |
|---|---|
| Airport | Kazan International Airport (UWKD) |
| Time | Latitude | Longitude | Altitude | Speed | Heading |
|---|---|---|---|---|---|
| 2026-05-07 13:27 | 36.89739 | 30.80038 | 202 ft | 0 kts | 61° |
| 2026-05-07 13:47 | 36.89737 | 30.80033 | 192 ft | 2 kts | 61° |
| 2026-05-07 13:47 | 36.89729 | 30.80015 | 207 ft | 2 kts | 61° |
| 2026-05-07 13:48 | 36.89721 | 30.79997 | 195 ft | 2 kts | 61° |
| 2026-05-07 13:48 | 36.89713 | 30.79979 | 197 ft | 2 kts | 61° |
| 2026-05-07 13:48 | 36.89705 | 30.79961 | 207 ft | 2 kts | 61° |
| 2026-05-07 13:48 | 36.89698 | 30.79943 | 204 ft | 2 kts | 66° |
| 2026-05-07 13:49 | 36.89696 | 30.79923 | 204 ft | 2 kts | 122° |
| 2026-05-07 13:49 | 36.89709 | 30.79911 | 207 ft | 2 kts | 173° |
| 2026-05-07 13:49 | 36.89721 | 30.79910 | 207 ft | 1 kts | 187° |
| 2026-05-07 13:49 | 36.89722 | 30.79910 | 203 ft | 0 kts | 189° |
| 2026-05-07 13:51 | 36.89721 | 30.79910 | 207 ft | 0 kts | 189° |
| 2026-05-07 13:52 | 36.89687 | 30.79905 | 204 ft | 9 kts | 185° |
| 2026-05-07 13:52 | 36.89654 | 30.79910 | 198 ft | 0 kts | 162° |
| 2026-05-07 13:56 | 36.89653 | 30.79911 | 192 ft | 1 kts | 162° |
| 2026-05-07 13:57 | 36.89636 | 30.79936 | 194 ft | 6 kts | 99° |
| 2026-05-07 13:57 | 36.89619 | 30.80013 | 202 ft | 11 kts | 107° |
| 2026-05-07 13:57 | 36.89607 | 30.80109 | 192 ft | 11 kts | 97° |
| 2026-05-07 13:57 | 36.89599 | 30.80204 | 192 ft | 13 kts | 95° |
| 2026-05-07 13:58 | 36.89589 | 30.80319 | 203 ft | 14 kts | 97° |
| 2026-05-07 13:58 | 36.89577 | 30.80444 | 203 ft | 15 kts | 96° |
| 2026-05-07 13:58 | 36.89566 | 30.80578 | 192 ft | 16 kts | 97° |
| 2026-05-07 13:58 | 36.89604 | 30.80691 | 193 ft | 15 kts | 17° |
| 2026-05-07 13:59 | 36.89700 | 30.80710 | 197 ft | 13 kts | 5° |
| 2026-05-07 13:59 | 36.89782 | 30.80722 | 202 ft | 12 kts | 7° |
| 2026-05-07 13:59 | 36.89893 | 30.80737 | 192 ft | 20 kts | 6° |
| 2026-05-07 13:59 | 36.90031 | 30.80755 | 192 ft | 20 kts | 7° |
| 2026-05-07 14:00 | 36.90164 | 30.80773 | 192 ft | 18 kts | 6° |
| 2026-05-07 14:00 | 36.90289 | 30.80789 | 195 ft | 21 kts | 6° |
| 2026-05-07 14:00 | 36.90458 | 30.80814 | 202 ft | 28 kts | 6° |
| 2026-05-07 14:00 | 36.90675 | 30.80844 | 200 ft | 35 kts | 6° |
| 2026-05-07 14:01 | 36.90866 | 30.80870 | 198 ft | 27 kts | 6° |
| 2026-05-07 14:01 | 36.90981 | 30.80920 | 206 ft | 13 kts | 81° |
| 2026-05-07 14:01 | 36.90974 | 30.81043 | 190 ft | 15 kts | 92° |
| 2026-05-07 14:01 | 36.90901 | 30.81110 | 201 ft | 15 kts | 185° |
| 2026-05-07 14:02 | 36.90887 | 30.81108 | 196 ft | 6 kts | 185° |
| 2026-05-07 14:02 | 36.90555 | 30.81066 | 193 ft | 89 kts | 185° |
| 2026-05-07 14:02 | 36.89687 | 30.80953 | 190 ft | 158 kts | 186° |
| 2026-05-07 14:02 | 36.88505 | 30.80792 | 682 ft | 174 kts | 184° |
| 2026-05-07 14:03 | 36.87224 | 30.80837 | 1312 ft | 197 kts | 175° |
| 2026-05-07 14:03 | 36.85786 | 30.81082 | 1795 ft | 220 kts | 171° |
| 2026-05-07 14:03 | 36.84213 | 30.81397 | 2183 ft | 244 kts | 171° |
| 2026-05-07 14:03 | 36.82459 | 30.81746 | 2560 ft | 268 kts | 171° |
| 2026-05-07 14:04 | 36.80534 | 30.82121 | 2925 ft | 292 kts | 169° |
| 2026-05-07 14:04 | 36.78551 | 30.82991 | 3283 ft | 313 kts | 154° |
| 2026-05-07 14:04 | 36.76566 | 30.84207 | 3933 ft | 322 kts | 152° |
| 2026-05-07 14:04 | 36.74763 | 30.85878 | 4598 ft | 328 kts | 128° |
| 2026-05-07 14:05 | 36.73742 | 30.88409 | 5291 ft | 330 kts | 100° |
| 2026-05-07 14:05 | 36.73456 | 30.91244 | 6091 ft | 331 kts | 94° |
| 2026-05-07 14:05 | 36.73230 | 30.94112 | 6891 ft | 333 kts | 93° |
| 2026-05-07 14:05 | 36.73011 | 30.96958 | 7609 ft | 337 kts | 93° |
| 2026-05-07 14:06 | 36.72784 | 30.99878 | 8341 ft | 340 kts | 93° |
| 2026-05-07 14:06 | 36.72632 | 31.02831 | 9071 ft | 342 kts | 84° |
| 2026-05-07 14:06 | 36.73042 | 31.05747 | 9794 ft | 344 kts | 76° |
| 2026-05-07 14:06 | 36.73420 | 31.08714 | 10471 ft | 349 kts | 82° |
| 2026-05-07 14:07 | 36.73623 | 31.11745 | 11120 ft | 354 kts | 84° |
| 2026-05-07 14:07 | 36.73750 | 31.14827 | 11773 ft | 358 kts | 85° |
| 2026-05-07 14:07 | 36.73868 | 31.17946 | 12407 ft | 362 kts | 85° |
| 2026-05-07 14:07 | 36.74009 | 31.21100 | 13031 ft | 366 kts | 84° |
| 2026-05-07 14:08 | 36.74181 | 31.24238 | 13646 ft | 370 kts | 83° |
| 2026-05-07 14:08 | 36.74384 | 31.27465 | 14212 ft | 375 kts | 82° |
| 2026-05-07 14:08 | 36.74604 | 31.30715 | 14745 ft | 379 kts | 82° |
| 2026-05-07 14:08 | 36.74833 | 31.34006 | 15286 ft | 383 kts | 82° |
| 2026-05-07 14:09 | 36.75063 | 31.37332 | 15816 ft | 387 kts | 82° |
| 2026-05-07 14:09 | 36.75294 | 31.40688 | 16343 ft | 391 kts | 82° |
| 2026-05-07 14:09 | 36.75524 | 31.44088 | 16867 ft | 395 kts | 82° |
| 2026-05-07 14:09 | 36.75752 | 31.47523 | 17396 ft | 399 kts | 82° |
| 2026-05-07 14:10 | 36.75978 | 31.50943 | 17919 ft | 403 kts | 82° |
| 2026-05-07 14:10 | 36.76206 | 31.54444 | 18451 ft | 407 kts | 82° |
| 2026-05-07 14:10 | 36.76435 | 31.57982 | 18902 ft | 411 kts | 82° |
| 2026-05-07 14:10 | 36.76666 | 31.61551 | 19364 ft | 414 kts | 82° |
| 2026-05-07 14:11 | 36.76898 | 31.65148 | 19860 ft | 418 kts | 82° |
| 2026-05-07 14:11 | 36.77132 | 31.68766 | 20343 ft | 421 kts | 82° |
| 2026-05-07 14:11 | 36.77366 | 31.72422 | 20803 ft | 424 kts | 82° |
| 2026-05-07 14:11 | 36.77602 | 31.76106 | 21288 ft | 427 kts | 81° |
| 2026-05-07 14:12 | 36.77837 | 31.79807 | 21751 ft | 430 kts | 81° |
| 2026-05-07 14:12 | 36.78065 | 31.83491 | 22163 ft | 433 kts | 82° |
| 2026-05-07 14:12 | 36.78298 | 31.87253 | 22583 ft | 436 kts | 81° |
| 2026-05-07 14:12 | 36.78532 | 31.91043 | 22992 ft | 439 kts | 81° |
| 2026-05-07 14:13 | 36.78765 | 31.94837 | 23446 ft | 441 kts | 81° |
| 2026-05-07 14:13 | 36.79001 | 31.98671 | 23772 ft | 445 kts | 81° |
| 2026-05-07 14:13 | 36.79238 | 32.02541 | 24074 ft | 449 kts | 81° |
| 2026-05-07 14:13 | 36.79474 | 32.06426 | 24408 ft | 450 kts | 81° |
| 2026-05-07 14:14 | 36.79707 | 32.10326 | 24717 ft | 452 kts | 81° |
| 2026-05-07 14:14 | 36.79942 | 32.14251 | 25036 ft | 455 kts | 81° |
| 2026-05-07 14:14 | 36.80178 | 32.18195 | 25356 ft | 457 kts | 81° |
| 2026-05-07 14:14 | 36.80415 | 32.22106 | 25645 ft | 460 kts | 81° |
| 2026-05-07 14:15 | 36.80657 | 32.26092 | 25947 ft | 461 kts | 81° |
| 2026-05-07 14:15 | 36.80897 | 32.30092 | 26235 ft | 463 kts | 81° |
| 2026-05-07 14:15 | 36.81134 | 32.34107 | 26535 ft | 465 kts | 81° |
| 2026-05-07 14:15 | 36.81368 | 32.38139 | 26854 ft | 466 kts | 81° |
| 2026-05-07 14:16 | 36.81600 | 32.42168 | 27287 ft | 465 kts | 81° |
| 2026-05-07 14:16 | 36.81830 | 32.46192 | 27704 ft | 464 kts | 81° |
| 2026-05-07 14:16 | 36.82059 | 32.50208 | 28118 ft | 464 kts | 81° |
| 2026-05-07 14:16 | 36.82284 | 32.54165 | 28499 ft | 463 kts | 81° |
| 2026-05-07 14:17 | 36.82512 | 32.58172 | 28920 ft | 463 kts | 81° |
| 2026-05-07 14:17 | 36.82738 | 32.62171 | 29326 ft | 462 kts | 81° |
| 2026-05-07 14:17 | 36.82961 | 32.66167 | 29730 ft | 461 kts | 81° |
| 2026-05-07 14:17 | 36.83184 | 32.70161 | 30121 ft | 461 kts | 81° |
| 2026-05-07 14:18 | 36.83404 | 32.74150 | 30470 ft | 460 kts | 81° |
| 2026-05-07 14:18 | 36.83622 | 32.78133 | 30790 ft | 460 kts | 81° |
| 2026-05-07 14:18 | 36.83836 | 32.82114 | 31105 ft | 460 kts | 81° |
| 2026-05-07 14:18 | 36.84047 | 32.86100 | 31418 ft | 460 kts | 81° |
| 2026-05-07 14:19 | 36.84260 | 32.90080 | 31729 ft | 459 kts | 81° |
| 2026-05-07 14:19 | 36.84470 | 32.94000 | 32039 ft | 459 kts | 81° |
| 2026-05-07 14:19 | 36.84683 | 32.97972 | 32366 ft | 459 kts | 81° |
| 2026-05-07 14:19 | 36.84897 | 33.01950 | 32695 ft | 459 kts | 81° |
| 2026-05-07 14:20 | 36.85110 | 33.05942 | 32880 ft | 463 kts | 81° |
| 2026-05-07 14:20 | 36.85322 | 33.09964 | 33010 ft | 466 kts | 81° |
| 2026-05-07 14:20 | 36.85534 | 33.14024 | 33139 ft | 470 kts | 82° |
| 2026-05-07 14:20 | 36.85744 | 33.18108 | 33279 ft | 473 kts | 82° |
| 2026-05-07 14:21 | 36.86183 | 33.22161 | 33414 ft | 469 kts | 70° |
| 2026-05-07 14:21 | 36.87308 | 33.25937 | 33547 ft | 461 kts | 55° |
| 2026-05-07 14:21 | 36.88928 | 33.29305 | 33690 ft | 459 kts | 52° |
| 2026-05-07 14:21 | 36.90638 | 33.32673 | 33834 ft | 461 kts | 51° |
| 2026-05-07 14:22 | 36.92377 | 33.36047 | 33977 ft | 462 kts | 51° |
| 2026-05-07 14:22 | 36.94134 | 33.39422 | 34118 ft | 464 kts | 51° |
| 2026-05-07 14:22 | 36.95899 | 33.42804 | 34242 ft | 465 kts | 51° |
| 2026-05-07 14:22 | 36.97666 | 33.46196 | 34370 ft | 466 kts | 51° |
| 2026-05-07 14:23 | 36.99431 | 33.49607 | 34492 ft | 467 kts | 51° |
| 2026-05-07 14:23 | 37.01189 | 33.53030 | 34622 ft | 468 kts | 51° |
| 2026-05-07 14:23 | 37.02945 | 33.56463 | 34740 ft | 468 kts | 51° |
| 2026-05-07 14:23 | 37.04701 | 33.59899 | 34872 ft | 469 kts | 51° |
| 2026-05-07 14:24 | 37.06433 | 33.63287 | 34994 ft | 469 kts | 51° |
| 2026-05-07 14:24 | 37.08190 | 33.66727 | 35138 ft | 469 kts | 51° |
| 2026-05-07 14:24 | 37.09950 | 33.70174 | 35170 ft | 471 kts | 51° |
| 2026-05-07 14:25 | 37.13496 | 33.77127 | 35172 ft | 476 kts | 51° |
| 2026-05-07 14:25 | 37.17068 | 33.84137 | 35173 ft | 479 kts | 51° |
| 2026-05-07 14:26 | 37.20654 | 33.91198 | 35173 ft | 480 kts | 52° |
| 2026-05-07 14:26 | 37.24212 | 33.98218 | 35176 ft | 480 kts | 51° |
| 2026-05-07 14:27 | 37.27788 | 34.05285 | 35184 ft | 480 kts | 51° |
| 2026-05-07 14:27 | 37.31363 | 34.12368 | 35185 ft | 481 kts | 51° |
| 2026-05-07 14:28 | 37.34939 | 34.19470 | 35190 ft | 481 kts | 51° |
| 2026-05-07 14:28 | 37.38488 | 34.26523 | 35194 ft | 480 kts | 52° |
| 2026-05-07 14:29 | 37.42054 | 34.33629 | 35188 ft | 480 kts | 52° |
| 2026-05-07 14:29 | 37.45612 | 34.40739 | 35187 ft | 481 kts | 52° |
| 2026-05-07 14:30 | 37.49165 | 34.47858 | 35187 ft | 480 kts | 52° |
| 2026-05-07 14:30 | 37.52692 | 34.54938 | 35179 ft | 481 kts | 52° |
| 2026-05-07 14:31 | 37.56240 | 34.62076 | 35178 ft | 481 kts | 52° |
| 2026-05-07 14:31 | 37.59787 | 34.69218 | 35172 ft | 480 kts | 52° |
| 2026-05-07 14:32 | 37.63328 | 34.76361 | 35167 ft | 480 kts | 52° |
| 2026-05-07 14:32 | 37.66856 | 34.83512 | 35173 ft | 480 kts | 52° |
| 2026-05-07 14:33 | 37.70363 | 34.90626 | 35176 ft | 480 kts | 52° |
| 2026-05-07 14:33 | 37.73888 | 34.97794 | 35171 ft | 480 kts | 52° |
| 2026-05-07 14:34 | 37.77408 | 35.04973 | 35175 ft | 481 kts | 52° |
| 2026-05-07 14:34 | 37.80927 | 35.12158 | 35176 ft | 480 kts | 52° |
| 2026-05-07 14:35 | 37.84422 | 35.19296 | 35167 ft | 480 kts | 52° |
| 2026-05-07 14:35 | 37.87928 | 35.26476 | 35162 ft | 480 kts | 52° |
| 2026-05-07 14:36 | 37.91429 | 35.33662 | 35157 ft | 480 kts | 52° |
| 2026-05-07 14:36 | 37.94925 | 35.40867 | 35161 ft | 480 kts | 53° |
| 2026-05-07 14:37 | 37.98395 | 35.48042 | 35168 ft | 481 kts | 53° |
| 2026-05-07 14:37 | 38.03635 | 35.58894 | 35169 ft | 482 kts | 53° |
| 2026-05-07 14:38 | 38.07125 | 35.66145 | 35169 ft | 481 kts | 53° |
| 2026-05-07 14:38 | 38.10588 | 35.73344 | 35173 ft | 481 kts | 53° |
| 2026-05-07 14:39 | 38.14063 | 35.80591 | 35175 ft | 480 kts | 53° |
| 2026-05-07 14:39 | 38.17526 | 35.87843 | 35180 ft | 480 kts | 53° |
| 2026-05-07 14:40 | 38.20991 | 35.95096 | 35185 ft | 480 kts | 53° |
| 2026-05-07 14:40 | 38.24447 | 36.02351 | 35183 ft | 479 kts | 53° |
| 2026-05-07 14:41 | 38.27868 | 36.09556 | 35179 ft | 479 kts | 53° |
| 2026-05-07 14:41 | 38.31320 | 36.16820 | 35186 ft | 480 kts | 53° |
| 2026-05-07 14:42 | 38.34763 | 36.24104 | 35188 ft | 480 kts | 53° |
| 2026-05-07 14:42 | 38.38210 | 36.31397 | 35189 ft | 480 kts | 53° |
| 2026-05-07 14:43 | 38.41629 | 36.38641 | 35191 ft | 480 kts | 54° |
| 2026-05-07 14:43 | 38.45062 | 36.45949 | 35188 ft | 480 kts | 54° |
| 2026-05-07 14:44 | 38.48492 | 36.53265 | 35188 ft | 480 kts | 54° |
| 2026-05-07 14:44 | 38.51916 | 36.60581 | 35186 ft | 480 kts | 54° |
| 2026-05-07 14:45 | 38.55335 | 36.67913 | 35184 ft | 480 kts | 54° |
| 2026-05-07 14:45 | 38.58720 | 36.75202 | 35177 ft | 480 kts | 55° |
| 2026-05-07 14:46 | 38.62127 | 36.82539 | 35171 ft | 481 kts | 55° |
| 2026-05-07 14:46 | 38.65547 | 36.89905 | 35171 ft | 481 kts | 55° |
| 2026-05-07 14:47 | 38.68966 | 36.97268 | 35170 ft | 481 kts | 56° |
| 2026-05-07 14:47 | 38.72354 | 37.04597 | 35166 ft | 482 kts | 56° |
| 2026-05-07 14:48 | 38.75750 | 37.11991 | 35168 ft | 482 kts | 56° |
| 2026-05-07 14:48 | 38.79145 | 37.19406 | 35167 ft | 482 kts | 56° |
| 2026-05-07 14:49 | 38.82548 | 37.26813 | 35169 ft | 482 kts | 56° |
| 2026-05-07 14:49 | 38.85924 | 37.34190 | 35169 ft | 482 kts | 56° |
| 2026-05-07 14:50 | 38.89309 | 37.41618 | 35168 ft | 482 kts | 57° |
| 2026-05-07 14:50 | 38.92690 | 37.49052 | 35166 ft | 482 kts | 57° |
| 2026-05-07 14:51 | 38.96068 | 37.56502 | 35167 ft | 483 kts | 57° |
| 2026-05-07 14:51 | 38.99448 | 37.63952 | 35162 ft | 483 kts | 57° |
| 2026-05-07 14:52 | 39.02801 | 37.71366 | 35160 ft | 483 kts | 57° |
| 2026-05-07 14:52 | 39.06167 | 37.78843 | 35159 ft | 483 kts | 57° |
| 2026-05-07 14:53 | 39.09527 | 37.86323 | 35156 ft | 483 kts | 57° |
| 2026-05-07 14:53 | 39.12880 | 37.93808 | 35159 ft | 483 kts | 57° |
| 2026-05-07 14:54 | 39.16215 | 38.01251 | 35145 ft | 483 kts | 58° |
| 2026-05-07 14:54 | 39.19568 | 38.08746 | 35142 ft | 483 kts | 58° |
| 2026-05-07 14:55 | 39.22923 | 38.16268 | 35139 ft | 484 kts | 58° |
| 2026-05-07 14:55 | 39.26270 | 38.23803 | 35144 ft | 484 kts | 58° |
| 2026-05-07 14:56 | 39.29616 | 38.31354 | 35135 ft | 485 kts | 58° |
| 2026-05-07 14:56 | 39.32944 | 38.38870 | 35136 ft | 485 kts | 58° |
| 2026-05-07 14:57 | 39.36289 | 38.46452 | 35137 ft | 486 kts | 58° |
| 2026-05-07 14:57 | 39.39626 | 38.54041 | 35140 ft | 486 kts | 58° |
| 2026-05-07 14:58 | 39.42970 | 38.61648 | 35147 ft | 486 kts | 59° |
| 2026-05-07 14:58 | 39.46283 | 38.69214 | 35148 ft | 487 kts | 59° |
| 2026-05-07 14:59 | 39.49608 | 38.76839 | 35153 ft | 487 kts | 59° |
| 2026-05-07 14:59 | 39.52941 | 38.84487 | 35158 ft | 488 kts | 59° |
| 2026-05-07 15:00 | 39.56274 | 38.92144 | 35160 ft | 488 kts | 59° |
| 2026-05-07 15:00 | 39.59581 | 38.99762 | 35161 ft | 488 kts | 59° |
| 2026-05-07 15:01 | 39.62900 | 39.07454 | 35163 ft | 489 kts | 59° |
| 2026-05-07 15:01 | 39.66224 | 39.15153 | 35166 ft | 489 kts | 59° |
| 2026-05-07 15:02 | 39.69551 | 39.22868 | 35164 ft | 490 kts | 59° |
| 2026-05-07 15:02 | 39.72847 | 39.30549 | 35162 ft | 490 kts | 59° |
| 2026-05-07 15:03 | 39.76166 | 39.38294 | 35161 ft | 491 kts | 60° |
| 2026-05-07 15:03 | 39.79479 | 39.46051 | 35164 ft | 491 kts | 60° |
| 2026-05-07 15:04 | 39.82795 | 39.53823 | 35166 ft | 491 kts | 60° |
| 2026-05-07 15:04 | 39.86087 | 39.61556 | 35169 ft | 492 kts | 60° |
| 2026-05-07 15:05 | 39.89385 | 39.69336 | 35170 ft | 492 kts | 60° |
| 2026-05-07 15:05 | 39.92685 | 39.77150 | 35170 ft | 492 kts | 60° |
| 2026-05-07 15:06 | 39.95982 | 39.84974 | 35170 ft | 492 kts | 60° |
| 2026-05-07 15:06 | 39.99283 | 39.92813 | 35173 ft | 493 kts | 60° |
| 2026-05-07 15:07 | 40.02556 | 40.00593 | 35167 ft | 493 kts | 60° |
| 2026-05-07 15:07 | 40.05841 | 40.08455 | 35161 ft | 493 kts | 60° |
| 2026-05-07 15:08 | 40.09125 | 40.16325 | 35160 ft | 494 kts | 60° |
| 2026-05-07 15:08 | 40.12404 | 40.24201 | 35159 ft | 494 kts | 61° |
| 2026-05-07 15:09 | 40.15658 | 40.32044 | 35156 ft | 494 kts | 61° |
| 2026-05-07 15:09 | 40.18937 | 40.39947 | 35157 ft | 494 kts | 61° |
| 2026-05-07 15:10 | 40.22211 | 40.47870 | 35156 ft | 495 kts | 61° |
| 2026-05-07 15:10 | 40.25480 | 40.55796 | 35155 ft | 495 kts | 61° |
| 2026-05-07 15:11 | 40.28729 | 40.63697 | 35158 ft | 496 kts | 61° |
| 2026-05-07 15:11 | 40.32000 | 40.71654 | 35162 ft | 496 kts | 61° |
| 2026-05-07 15:12 | 40.35264 | 40.79626 | 35169 ft | 497 kts | 61° |
| 2026-05-07 15:12 | 40.38519 | 40.87621 | 35171 ft | 497 kts | 61° |
| 2026-05-07 15:13 | 40.41769 | 40.95631 | 35168 ft | 497 kts | 62° |
| 2026-05-07 15:13 | 40.44996 | 41.03589 | 35177 ft | 497 kts | 61° |
| 2026-05-07 15:14 | 40.48246 | 41.11616 | 35179 ft | 498 kts | 62° |
| 2026-05-07 15:14 | 40.51497 | 41.19643 | 35179 ft | 498 kts | 62° |
| 2026-05-07 15:15 | 40.54742 | 41.27691 | 35177 ft | 498 kts | 62° |
| 2026-05-07 15:15 | 40.57979 | 41.35747 | 35174 ft | 498 kts | 62° |
| 2026-05-07 15:16 | 40.61186 | 41.43762 | 35176 ft | 499 kts | 62° |
| 2026-05-07 15:16 | 40.64411 | 41.51845 | 35170 ft | 499 kts | 62° |
| 2026-05-07 15:17 | 40.67630 | 41.59945 | 35172 ft | 499 kts | 62° |
| 2026-05-07 15:17 | 40.70848 | 41.68056 | 35175 ft | 500 kts | 62° |
| 2026-05-07 15:18 | 40.74040 | 41.76117 | 35175 ft | 500 kts | 62° |
| 2026-05-07 15:18 | 40.77262 | 41.84252 | 35178 ft | 500 kts | 62° |
| 2026-05-07 15:19 | 40.80467 | 41.92396 | 35185 ft | 500 kts | 62° |
| 2026-05-07 15:19 | 40.83672 | 42.00553 | 35184 ft | 501 kts | 62° |
| 2026-05-07 15:20 | 40.86872 | 42.08727 | 35188 ft | 501 kts | 63° |
| 2026-05-07 15:20 | 40.90039 | 42.16866 | 35197 ft | 502 kts | 63° |
| 2026-05-07 15:21 | 40.93229 | 42.25069 | 35201 ft | 502 kts | 63° |
| 2026-05-07 15:21 | 40.96420 | 42.33287 | 35203 ft | 502 kts | 63° |
| 2026-05-07 15:22 | 40.99613 | 42.41506 | 35207 ft | 502 kts | 63° |
| 2026-05-07 15:22 | 41.02777 | 42.49677 | 35207 ft | 502 kts | 63° |
| 2026-05-07 15:23 | 41.05955 | 42.57920 | 35204 ft | 502 kts | 63° |
| 2026-05-07 15:23 | 41.09120 | 42.66177 | 35204 ft | 502 kts | 63° |
| 2026-05-07 15:24 | 41.12282 | 42.74437 | 35202 ft | 502 kts | 63° |
| 2026-05-07 15:24 | 41.15426 | 42.82652 | 35198 ft | 502 kts | 63° |
| 2026-05-07 15:25 | 41.18581 | 42.90926 | 35197 ft | 503 kts | 63° |
| 2026-05-07 15:25 | 41.21723 | 42.99223 | 35194 ft | 503 kts | 64° |
| 2026-05-07 15:26 | 41.24864 | 43.07526 | 35193 ft | 503 kts | 63° |
| 2026-05-07 15:26 | 41.28006 | 43.15842 | 35197 ft | 503 kts | 64° |
| 2026-05-07 15:27 | 41.31127 | 43.24109 | 35198 ft | 504 kts | 64° |
| 2026-05-07 15:27 | 41.34262 | 43.32445 | 35201 ft | 504 kts | 64° |
| 2026-05-07 15:28 | 41.37383 | 43.40803 | 35199 ft | 504 kts | 64° |
| 2026-05-07 15:28 | 41.40502 | 43.49176 | 35200 ft | 505 kts | 64° |
| 2026-05-07 15:29 | 41.43603 | 43.57504 | 35202 ft | 505 kts | 64° |
| 2026-05-07 15:29 | 41.46718 | 43.65894 | 35200 ft | 505 kts | 64° |
| 2026-05-07 15:30 | 41.49829 | 43.74294 | 35198 ft | 505 kts | 64° |
| 2026-05-07 15:30 | 41.52931 | 43.82705 | 35196 ft | 506 kts | 64° |
| 2026-05-07 15:31 | 41.55510 | 43.89713 | 35195 ft | 506 kts | 64° |
| 2026-05-07 15:31 | 41.59113 | 43.99515 | 35189 ft | 506 kts | 64° |
| 2026-05-07 15:32 | 41.62203 | 44.07965 | 35184 ft | 506 kts | 64° |
| 2026-05-07 15:32 | 41.65284 | 44.16430 | 35180 ft | 506 kts | 64° |
| 2026-05-07 15:33 | 41.67847 | 44.23468 | 35171 ft | 507 kts | 64° |
| 2026-05-07 15:33 | 41.71425 | 44.33334 | 35162 ft | 507 kts | 64° |
| 2026-05-07 15:34 | 41.73995 | 44.40454 | 35162 ft | 507 kts | 64° |
| 2026-05-07 15:34 | 41.75634 | 44.45020 | 35156 ft | 507 kts | 65° |
| 2026-05-07 15:35 | 41.78690 | 44.53546 | 35151 ft | 508 kts | 65° |
| 2026-05-07 15:35 | 41.82246 | 44.63444 | 35145 ft | 508 kts | 64° |
| 2026-05-07 15:36 | 41.84820 | 44.70616 | 35150 ft | 509 kts | 65° |
| 2026-05-07 15:36 | 41.87859 | 44.79136 | 35152 ft | 510 kts | 65° |
| 2026-05-07 15:37 | 41.90905 | 44.87721 | 35155 ft | 510 kts | 65° |
| 2026-05-07 15:37 | 41.93955 | 44.96319 | 35155 ft | 510 kts | 65° |
| 2026-05-07 15:38 | 41.96999 | 45.04926 | 35157 ft | 510 kts | 65° |
| 2026-05-07 15:38 | 42.00007 | 45.13486 | 35159 ft | 510 kts | 65° |
| 2026-05-07 15:39 | 42.03034 | 45.22117 | 35155 ft | 510 kts | 65° |
| 2026-05-07 15:39 | 42.06060 | 45.30754 | 35157 ft | 510 kts | 65° |
| 2026-05-07 15:40 | 42.09081 | 45.39397 | 35157 ft | 511 kts | 65° |
| 2026-05-07 15:40 | 42.12077 | 45.48008 | 35158 ft | 511 kts | 65° |
| 2026-05-07 15:41 | 42.15082 | 45.56678 | 35162 ft | 511 kts | 65° |
| 2026-05-07 15:41 | 42.18092 | 45.65375 | 35165 ft | 512 kts | 65° |
| 2026-05-07 15:42 | 42.21090 | 45.74072 | 35173 ft | 512 kts | 65° |
| 2026-05-07 15:42 | 42.24084 | 45.82784 | 35178 ft | 512 kts | 65° |
| 2026-05-07 15:43 | 42.27057 | 45.91452 | 35195 ft | 512 kts | 65° |
| 2026-05-07 15:43 | 42.30037 | 46.00175 | 35198 ft | 512 kts | 65° |
| 2026-05-07 15:44 | 42.33011 | 46.08910 | 35199 ft | 512 kts | 65° |
| 2026-05-07 15:44 | 42.35974 | 46.17663 | 35201 ft | 512 kts | 65° |
| 2026-05-07 15:45 | 42.38932 | 46.26412 | 35196 ft | 512 kts | 65° |
| 2026-05-07 15:45 | 42.41866 | 46.35105 | 35187 ft | 511 kts | 66° |
| 2026-05-07 15:46 | 42.46283 | 46.48261 | 35181 ft | 511 kts | 66° |
| 2026-05-07 15:47 | 42.49226 | 46.57035 | 35187 ft | 512 kts | 66° |
| 2026-05-07 15:47 | 42.52167 | 46.65845 | 35191 ft | 513 kts | 66° |
| 2026-05-07 15:48 | 42.55087 | 46.74612 | 35189 ft | 514 kts | 66° |
| 2026-05-07 15:48 | 42.58019 | 46.83447 | 35187 ft | 514 kts | 66° |
| 2026-05-07 15:49 | 42.60935 | 46.92304 | 35181 ft | 514 kts | 66° |
| 2026-05-07 15:49 | 42.63842 | 47.01175 | 35172 ft | 514 kts | 66° |
| 2026-05-07 15:50 | 42.66727 | 47.09995 | 35163 ft | 514 kts | 66° |
| 2026-05-07 15:50 | 42.69636 | 47.18878 | 35149 ft | 514 kts | 66° |
| 2026-05-07 15:51 | 42.72536 | 47.27767 | 35134 ft | 514 kts | 66° |
| 2026-05-07 15:51 | 42.75425 | 47.36671 | 35117 ft | 514 kts | 66° |
| 2026-05-07 15:52 | 42.78293 | 47.45516 | 35107 ft | 514 kts | 66° |
| 2026-05-07 15:52 | 42.81173 | 47.54432 | 35100 ft | 514 kts | 66° |
| 2026-05-07 15:53 | 42.84045 | 47.63356 | 35101 ft | 514 kts | 66° |
| 2026-05-07 15:53 | 42.86905 | 47.72283 | 35100 ft | 514 kts | 66° |
| 2026-05-07 15:54 | 42.89737 | 47.81160 | 35102 ft | 514 kts | 66° |
| 2026-05-07 15:54 | 42.92589 | 47.90097 | 35100 ft | 514 kts | 67° |
| 2026-05-07 15:55 | 42.95429 | 47.99042 | 35093 ft | 513 kts | 67° |
| 2026-05-07 15:55 | 42.98251 | 48.07991 | 35087 ft | 513 kts | 67° |
| 2026-05-07 15:56 | 43.01048 | 48.16880 | 35084 ft | 513 kts | 67° |
| 2026-05-07 15:56 | 43.03864 | 48.25838 | 35080 ft | 513 kts | 67° |
| 2026-05-07 15:57 | 43.06675 | 48.34802 | 35080 ft | 513 kts | 67° |
| 2026-05-07 15:57 | 43.09479 | 48.43771 | 35076 ft | 513 kts | 67° |
| 2026-05-07 15:58 | 43.12251 | 48.52700 | 35074 ft | 513 kts | 67° |
| 2026-05-07 15:58 | 43.15037 | 48.61691 | 35078 ft | 513 kts | 68° |
| 2026-05-07 15:59 | 43.17819 | 48.70693 | 35076 ft | 513 kts | 68° |
| 2026-05-07 15:59 | 43.20588 | 48.79705 | 35073 ft | 513 kts | 68° |
| 2026-05-07 16:00 | 43.23333 | 48.88662 | 35071 ft | 513 kts | 68° |
| 2026-05-07 16:00 | 43.26093 | 48.97688 | 35070 ft | 513 kts | 68° |
| 2026-05-07 16:01 | 43.28853 | 49.06730 | 35066 ft | 513 kts | 68° |
| 2026-05-07 16:01 | 43.31593 | 49.15776 | 35064 ft | 514 kts | 68° |
| 2026-05-07 16:02 | 43.34311 | 49.24780 | 35063 ft | 514 kts | 68° |
| 2026-05-07 16:02 | 43.37037 | 49.33858 | 35053 ft | 514 kts | 68° |
| 2026-05-07 16:03 | 43.39765 | 49.42946 | 35054 ft | 515 kts | 68° |
| 2026-05-07 16:03 | 43.42494 | 49.52053 | 35065 ft | 515 kts | 68° |
| 2026-05-07 16:04 | 43.45217 | 49.61167 | 35061 ft | 515 kts | 68° |
| 2026-05-07 16:04 | 43.47908 | 49.70224 | 35059 ft | 515 kts | 68° |
| 2026-05-07 16:05 | 43.50615 | 49.79353 | 35056 ft | 515 kts | 68° |
| 2026-05-07 16:05 | 43.53317 | 49.88493 | 35048 ft | 515 kts | 69° |
| 2026-05-07 16:06 | 43.55987 | 49.97583 | 35046 ft | 515 kts | 69° |
| 2026-05-07 16:06 | 43.58667 | 50.06757 | 35038 ft | 516 kts | 69° |
| 2026-05-07 16:07 | 43.61346 | 50.15935 | 35036 ft | 516 kts | 69° |
| 2026-05-07 16:07 | 43.64024 | 50.25133 | 35038 ft | 516 kts | 69° |
| 2026-05-07 16:08 | 43.66671 | 50.34270 | 35036 ft | 516 kts | 69° |
| 2026-05-07 16:08 | 43.69330 | 50.43491 | 35040 ft | 516 kts | 69° |
| 2026-05-07 16:09 | 43.71984 | 50.52713 | 35038 ft | 517 kts | 69° |
| 2026-05-07 16:09 | 43.74635 | 50.61949 | 35036 ft | 517 kts | 69° |
| 2026-05-07 16:10 | 43.77269 | 50.71196 | 35034 ft | 517 kts | 69° |
| 2026-05-07 16:10 | 43.79883 | 50.80389 | 35035 ft | 517 kts | 69° |
| 2026-05-07 16:11 | 43.82509 | 50.89653 | 35029 ft | 517 kts | 69° |
| 2026-05-07 16:11 | 43.85738 | 50.98516 | 35024 ft | 517 kts | 52° |
| 2026-05-07 16:11 | 43.88119 | 51.02238 | 35025 ft | 516 kts | 41° |
| 2026-05-07 16:12 | 43.90944 | 51.05263 | 35020 ft | 512 kts | 29° |
| 2026-05-07 16:12 | 43.94053 | 51.07480 | 35018 ft | 508 kts | 18° |
| 2026-05-07 16:12 | 43.97416 | 51.08911 | 35020 ft | 503 kts | 8° |
| 2026-05-07 16:13 | 44.04300 | 51.10611 | 35021 ft | 503 kts | 6° |
| 2026-05-07 16:13 | 44.11197 | 51.12295 | 35024 ft | 503 kts | 7° |
| 2026-05-07 16:14 | 44.18092 | 51.13988 | 35020 ft | 503 kts | 7° |
| 2026-05-07 16:14 | 44.24947 | 51.15676 | 35025 ft | 504 kts | 7° |
| 2026-05-07 16:15 | 44.31849 | 51.17389 | 35017 ft | 503 kts | 7° |
| 2026-05-07 16:15 | 44.38739 | 51.19101 | 35019 ft | 503 kts | 7° |
| 2026-05-07 16:16 | 44.45635 | 51.20811 | 35009 ft | 503 kts | 7° |
| 2026-05-07 16:16 | 44.52471 | 51.22512 | 35009 ft | 502 kts | 7° |
| 2026-05-07 16:17 | 44.59358 | 51.24227 | 35000 ft | 502 kts | 7° |
| 2026-05-07 16:17 | 44.66236 | 51.25945 | 34998 ft | 502 kts | 7° |
| 2026-05-07 16:18 | 44.73106 | 51.27672 | 34996 ft | 501 kts | 7° |
| 2026-05-07 16:18 | 44.79927 | 51.29395 | 34990 ft | 501 kts | 8° |
| 2026-05-07 16:19 | 44.86805 | 51.30963 | 34986 ft | 500 kts | 6° |
| 2026-05-07 16:19 | 44.93687 | 51.32310 | 34976 ft | 499 kts | 5° |
| 2026-05-07 16:20 | 45.00568 | 51.33672 | 34965 ft | 499 kts | 6° |
| 2026-05-07 16:20 | 45.07388 | 51.35111 | 34966 ft | 499 kts | 6° |
| 2026-05-07 16:21 | 45.14254 | 51.36586 | 34958 ft | 499 kts | 6° |
| 2026-05-07 16:21 | 45.21111 | 51.38043 | 34955 ft | 498 kts | 6° |
| 2026-05-07 16:22 | 45.27967 | 51.39470 | 34950 ft | 498 kts | 6° |
| 2026-05-07 16:22 | 45.34774 | 51.40893 | 34941 ft | 497 kts | 7° |
| 2026-05-07 16:23 | 45.41618 | 51.42352 | 34945 ft | 497 kts | 7° |
| 2026-05-07 16:23 | 45.48455 | 51.43814 | 34934 ft | 497 kts | 7° |
| 2026-05-07 16:24 | 45.55291 | 51.45271 | 34930 ft | 497 kts | 7° |
| 2026-05-07 16:24 | 45.62133 | 51.46735 | 34923 ft | 497 kts | 7° |
| 2026-05-07 16:25 | 45.68918 | 51.48188 | 34912 ft | 497 kts | 7° |
| 2026-05-07 16:25 | 45.75760 | 51.49656 | 34905 ft | 497 kts | 7° |
| 2026-05-07 16:26 | 45.82600 | 51.51118 | 34902 ft | 497 kts | 7° |
| 2026-05-07 16:26 | 45.89442 | 51.52603 | 34900 ft | 497 kts | 7° |
| 2026-05-07 16:27 | 45.96225 | 51.54090 | 34894 ft | 497 kts | 7° |
| 2026-05-07 16:27 | 46.03062 | 51.55572 | 34894 ft | 497 kts | 7° |
| 2026-05-07 16:28 | 46.09901 | 51.57056 | 34889 ft | 497 kts | 7° |
| 2026-05-07 16:28 | 46.16734 | 51.58557 | 34885 ft | 496 kts | 7° |
| 2026-05-07 16:29 | 46.23511 | 51.60048 | 34880 ft | 496 kts | 7° |
| 2026-05-07 16:29 | 46.30333 | 51.61547 | 34879 ft | 496 kts | 8° |
| 2026-05-07 16:30 | 46.37146 | 51.63039 | 34875 ft | 495 kts | 8° |
| 2026-05-07 16:30 | 46.43955 | 51.64535 | 34867 ft | 495 kts | 8° |
| 2026-05-07 16:31 | 46.50763 | 51.66025 | 34865 ft | 494 kts | 8° |
| 2026-05-07 16:31 | 46.57510 | 51.67509 | 34861 ft | 494 kts | 8° |
| 2026-05-07 16:32 | 46.64310 | 51.69011 | 34855 ft | 494 kts | 8° |
| 2026-05-07 16:32 | 46.71102 | 51.70508 | 34849 ft | 494 kts | 8° |
| 2026-05-07 16:33 | 46.77905 | 51.72005 | 34841 ft | 494 kts | 8° |
| 2026-05-07 16:33 | 46.84694 | 51.73506 | 34836 ft | 494 kts | 8° |
| 2026-05-07 16:34 | 46.91437 | 51.75015 | 34829 ft | 493 kts | 8° |
| 2026-05-07 16:34 | 46.98226 | 51.76520 | 34823 ft | 493 kts | 8° |
| 2026-05-07 16:35 | 47.05008 | 51.78026 | 34820 ft | 493 kts | 8° |
| 2026-05-07 16:35 | 47.11800 | 51.79290 | 34816 ft | 491 kts | 358° |
| 2026-05-07 16:36 | 47.18536 | 51.78339 | 34819 ft | 489 kts | 352° |
| 2026-05-07 16:36 | 47.25300 | 51.77244 | 34827 ft | 489 kts | 353° |
| 2026-05-07 16:37 | 47.32055 | 51.76152 | 34831 ft | 488 kts | 353° |
| 2026-05-07 16:37 | 47.38804 | 51.75042 | 34832 ft | 488 kts | 352° |
| 2026-05-07 16:38 | 47.45505 | 51.73938 | 34838 ft | 488 kts | 353° |
| 2026-05-07 16:38 | 47.52247 | 51.72843 | 34836 ft | 487 kts | 353° |
| 2026-05-07 16:39 | 47.58989 | 51.71744 | 34832 ft | 487 kts | 352° |
| 2026-05-07 16:39 | 47.65728 | 51.70624 | 34830 ft | 487 kts | 352° |
| 2026-05-07 16:40 | 47.72427 | 51.69518 | 34829 ft | 488 kts | 352° |
| 2026-05-07 16:40 | 47.79168 | 51.68408 | 34829 ft | 488 kts | 353° |
| 2026-05-07 16:41 | 47.85915 | 51.67292 | 34829 ft | 488 kts | 353° |
| 2026-05-07 16:41 | 47.92668 | 51.66166 | 34829 ft | 488 kts | 352° |
| 2026-05-07 16:42 | 47.99417 | 51.65040 | 34830 ft | 488 kts | 352° |
| 2026-05-07 16:42 | 48.06123 | 51.63913 | 34837 ft | 488 kts | 352° |
| 2026-05-07 16:43 | 48.12872 | 51.62776 | 34838 ft | 488 kts | 352° |
| 2026-05-07 16:43 | 48.19617 | 51.61633 | 34844 ft | 488 kts | 352° |
| 2026-05-07 16:44 | 48.26360 | 51.60496 | 34849 ft | 487 kts | 352° |
| 2026-05-07 16:44 | 48.33051 | 51.59364 | 34850 ft | 487 kts | 352° |
| 2026-05-07 16:45 | 48.39782 | 51.58222 | 34860 ft | 487 kts | 352° |
| 2026-05-07 16:45 | 48.46507 | 51.57074 | 34863 ft | 486 kts | 352° |
| 2026-05-07 16:46 | 48.53228 | 51.55925 | 34867 ft | 486 kts | 352° |
| 2026-05-07 16:46 | 48.59895 | 51.54790 | 34869 ft | 485 kts | 352° |
| 2026-05-07 16:47 | 48.66597 | 51.53643 | 34871 ft | 485 kts | 352° |
| 2026-05-07 16:47 | 48.73301 | 51.52480 | 34877 ft | 485 kts | 352° |
| 2026-05-07 16:48 | 48.80000 | 51.51322 | 34876 ft | 484 kts | 353° |
| 2026-05-07 16:48 | 48.86646 | 51.50177 | 34877 ft | 484 kts | 353° |
| 2026-05-07 16:49 | 48.93333 | 51.49017 | 34881 ft | 484 kts | 353° |
| 2026-05-07 16:49 | 49.00022 | 51.47858 | 34880 ft | 483 kts | 353° |
| 2026-05-07 16:50 | 49.06706 | 51.46702 | 34882 ft | 483 kts | 353° |
| 2026-05-07 16:50 | 49.13386 | 51.45535 | 34881 ft | 483 kts | 353° |
| 2026-05-07 16:51 | 49.20022 | 51.44368 | 34882 ft | 483 kts | 353° |
| 2026-05-07 16:51 | 49.26699 | 51.43205 | 34883 ft | 483 kts | 353° |
| 2026-05-07 16:52 | 49.33374 | 51.42026 | 34887 ft | 483 kts | 353° |
| 2026-05-07 16:52 | 49.40048 | 51.40834 | 34887 ft | 483 kts | 353° |
| 2026-05-07 16:53 | 49.46670 | 51.39659 | 34887 ft | 483 kts | 353° |
| 2026-05-07 16:53 | 49.53340 | 51.38486 | 34882 ft | 483 kts | 353° |
| 2026-05-07 16:54 | 49.60014 | 51.37302 | 34882 ft | 483 kts | 353° |
| 2026-05-07 16:54 | 49.66682 | 51.36110 | 34887 ft | 482 kts | 353° |
| 2026-05-07 16:55 | 49.73304 | 51.34914 | 34890 ft | 482 kts | 353° |
| 2026-05-07 16:55 | 49.79956 | 51.33710 | 34897 ft | 481 kts | 353° |
| 2026-05-07 16:56 | 49.86594 | 51.32515 | 34900 ft | 480 kts | 354° |
| 2026-05-07 16:56 | 49.96524 | 51.30741 | 34904 ft | 478 kts | 354° |
| 2026-05-07 16:57 | 50.03084 | 51.29554 | 34902 ft | 477 kts | 354° |
| 2026-05-07 16:57 | 50.09676 | 51.28344 | 34902 ft | 476 kts | 354° |
| 2026-05-07 16:58 | 50.16254 | 51.27149 | 34900 ft | 476 kts | 354° |
| 2026-05-07 16:58 | 50.22820 | 51.25953 | 34900 ft | 475 kts | 354° |
| 2026-05-07 16:59 | 50.29340 | 51.24758 | 34897 ft | 474 kts | 354° |
| 2026-05-07 16:59 | 50.35892 | 51.23558 | 34893 ft | 474 kts | 354° |
| 2026-05-07 17:00 | 50.42447 | 51.22353 | 34896 ft | 474 kts | 354° |
| 2026-05-07 17:00 | 50.48999 | 51.21136 | 34892 ft | 474 kts | 354° |
| 2026-05-07 17:01 | 50.55549 | 51.19922 | 34896 ft | 474 kts | 354° |
| 2026-05-07 17:01 | 50.62053 | 51.18717 | 34897 ft | 474 kts | 354° |
| 2026-05-07 17:02 | 50.68598 | 51.17502 | 34899 ft | 473 kts | 354° |
| 2026-05-07 17:02 | 50.75124 | 51.16278 | 35033 ft | 470 kts | 354° |
| 2026-05-07 17:03 | 50.78358 | 51.15672 | 35220 ft | 467 kts | 354° |
| 2026-05-07 17:03 | 50.81577 | 51.15073 | 35419 ft | 465 kts | 354° |
| 2026-05-07 17:03 | 50.84786 | 51.14479 | 35634 ft | 463 kts | 354° |
| 2026-05-07 17:03 | 50.87936 | 51.13898 | 35851 ft | 461 kts | 354° |
| 2026-05-07 17:04 | 50.91120 | 51.13315 | 36088 ft | 459 kts | 354° |
| 2026-05-07 17:04 | 50.94288 | 51.12737 | 36336 ft | 457 kts | 354° |
| 2026-05-07 17:04 | 50.97439 | 51.12164 | 36601 ft | 455 kts | 354° |
| 2026-05-07 17:04 | 51.00582 | 51.11596 | 36879 ft | 453 kts | 354° |
| 2026-05-07 17:05 | 51.03705 | 51.11034 | 37183 ft | 451 kts | 354° |
| 2026-05-07 17:05 | 51.06812 | 51.10478 | 37493 ft | 448 kts | 354° |
| 2026-05-07 17:05 | 51.09901 | 51.09926 | 37827 ft | 445 kts | 354° |
| 2026-05-07 17:05 | 51.12967 | 51.09382 | 38182 ft | 442 kts | 354° |
| 2026-05-07 17:06 | 51.15970 | 51.08850 | 38539 ft | 438 kts | 354° |
| 2026-05-07 17:06 | 51.18985 | 51.08319 | 38846 ft | 434 kts | 353° |
| 2026-05-07 17:06 | 51.21968 | 51.07795 | 39151 ft | 429 kts | 353° |
| 2026-05-07 17:06 | 51.24916 | 51.07279 | 39472 ft | 423 kts | 353° |
| 2026-05-07 17:07 | 51.27824 | 51.06773 | 39805 ft | 417 kts | 353° |
| 2026-05-07 17:07 | 51.30685 | 51.06276 | 40143 ft | 410 kts | 353° |
| 2026-05-07 17:07 | 51.33494 | 51.05790 | 40492 ft | 402 kts | 353° |
| 2026-05-07 17:07 | 51.36250 | 51.05315 | 40831 ft | 394 kts | 353° |
| 2026-05-07 17:08 | 51.38907 | 51.04859 | 41158 ft | 385 kts | 353° |
| 2026-05-07 17:08 | 51.41537 | 51.04409 | 41413 ft | 378 kts | 353° |
| 2026-05-07 17:08 | 51.46817 | 51.03506 | 40947 ft | 393 kts | 353° |
| 2026-05-07 17:09 | 51.49633 | 51.03022 | 39668 ft | 420 kts | 353° |
| 2026-05-07 17:09 | 51.52614 | 51.02508 | 38379 ft | 441 kts | 354° |
| 2026-05-07 17:09 | 51.55722 | 51.01972 | 36903 ft | 456 kts | 354° |
| 2026-05-07 17:09 | 51.58900 | 51.01426 | 35599 ft | 461 kts | 354° |
| 2026-05-07 17:10 | 51.62012 | 51.00880 | 35269 ft | 450 kts | 353° |
| 2026-05-07 17:10 | 51.65086 | 51.00080 | 34846 ft | 452 kts | 349° |
| 2026-05-07 17:10 | 51.71096 | 50.96959 | 34894 ft | 460 kts | 341° |
| 2026-05-07 17:11 | 51.77265 | 50.93959 | 34893 ft | 465 kts | 347° |
| 2026-05-07 17:11 | 51.83561 | 50.91558 | 34893 ft | 465 kts | 347° |
| 2026-05-07 17:12 | 51.89810 | 50.89094 | 34892 ft | 466 kts | 346° |
| 2026-05-07 17:12 | 51.96068 | 50.86403 | 34892 ft | 465 kts | 345° |
| 2026-05-07 17:13 | 52.02327 | 50.83669 | 34895 ft | 466 kts | 346° |
| 2026-05-07 17:13 | 52.08583 | 50.80969 | 34899 ft | 466 kts | 346° |
| 2026-05-07 17:14 | 52.14855 | 50.78274 | 34909 ft | 466 kts | 346° |
| 2026-05-07 17:14 | 52.21073 | 50.75612 | 34906 ft | 465 kts | 346° |
| 2026-05-07 17:15 | 52.27335 | 50.72915 | 34899 ft | 465 kts | 346° |
| 2026-05-07 17:15 | 52.33597 | 50.70209 | 34899 ft | 465 kts | 345° |
| 2026-05-07 17:16 | 52.39852 | 50.67485 | 34901 ft | 465 kts | 345° |
| 2026-05-07 17:16 | 52.46111 | 50.64747 | 34904 ft | 465 kts | 345° |
| 2026-05-07 17:17 | 52.52326 | 50.62030 | 34918 ft | 465 kts | 345° |
| 2026-05-07 17:17 | 52.58585 | 50.59287 | 34916 ft | 465 kts | 345° |
| 2026-05-07 17:18 | 52.64837 | 50.56528 | 34921 ft | 465 kts | 345° |
| 2026-05-07 17:18 | 52.71088 | 50.53765 | 34912 ft | 465 kts | 345° |
| 2026-05-07 17:19 | 52.77292 | 50.51015 | 34915 ft | 465 kts | 345° |
| 2026-05-07 17:19 | 52.83531 | 50.48251 | 34921 ft | 464 kts | 345° |
| 2026-05-07 17:20 | 52.89762 | 50.45475 | 34924 ft | 464 kts | 345° |
| 2026-05-07 17:20 | 52.95993 | 50.42688 | 34921 ft | 463 kts | 345° |
| 2026-05-07 17:21 | 53.02217 | 50.39899 | 34918 ft | 463 kts | 345° |
| 2026-05-07 17:21 | 53.08434 | 50.37105 | 34935 ft | 463 kts | 345° |
| 2026-05-07 17:22 | 53.14608 | 50.34317 | 34927 ft | 463 kts | 345° |
| 2026-05-07 17:22 | 53.20823 | 50.31499 | 34939 ft | 463 kts | 345° |
| 2026-05-07 17:23 | 53.27031 | 50.28684 | 34942 ft | 462 kts | 345° |
| 2026-05-07 17:23 | 53.33239 | 50.25870 | 34954 ft | 462 kts | 345° |
| 2026-05-07 17:24 | 53.39436 | 50.23042 | 34964 ft | 461 kts | 345° |
| 2026-05-07 17:24 | 53.45629 | 50.20201 | 34965 ft | 461 kts | 344° |
| 2026-05-07 17:25 | 53.51777 | 50.17380 | 34963 ft | 461 kts | 345° |
| 2026-05-07 17:25 | 53.58003 | 50.14746 | 34963 ft | 461 kts | 346° |
| 2026-05-07 17:26 | 53.64235 | 50.12301 | 34956 ft | 461 kts | 347° |
| 2026-05-07 17:26 | 53.70493 | 50.09816 | 34964 ft | 461 kts | 346° |
| 2026-05-07 17:27 | 53.76729 | 50.07255 | 34957 ft | 461 kts | 346° |
| 2026-05-07 17:27 | 53.82960 | 50.04672 | 34959 ft | 461 kts | 346° |
| 2026-05-07 17:28 | 53.89143 | 50.02115 | 34957 ft | 460 kts | 346° |
| 2026-05-07 17:28 | 53.95367 | 49.99542 | 34964 ft | 460 kts | 346° |
| 2026-05-07 17:29 | 54.01591 | 49.96962 | 34967 ft | 460 kts | 346° |
| 2026-05-07 17:29 | 54.07801 | 49.94377 | 34957 ft | 459 kts | 346° |
| 2026-05-07 17:30 | 54.14011 | 49.91785 | 34973 ft | 459 kts | 346° |
| 2026-05-07 17:30 | 54.20163 | 49.89200 | 34977 ft | 458 kts | 346° |
| 2026-05-07 17:31 | 54.26316 | 49.86609 | 34438 ft | 451 kts | 346° |
| 2026-05-07 17:31 | 54.29344 | 49.85327 | 33839 ft | 445 kts | 346° |
| 2026-05-07 17:31 | 54.32328 | 49.84062 | 33192 ft | 440 kts | 346° |
| 2026-05-07 17:32 | 54.35286 | 49.82826 | 32568 ft | 435 kts | 348° |
| 2026-05-07 17:32 | 54.38257 | 49.81996 | 31701 ft | 435 kts | 352° |
| 2026-05-07 17:32 | 54.41282 | 49.81263 | 30508 ft | 443 kts | 352° |
| 2026-05-07 17:32 | 54.43309 | 49.80777 | 29839 ft | 446 kts | 352° |
| 2026-05-07 17:33 | 54.47367 | 49.79808 | 28657 ft | 442 kts | 352° |
| 2026-05-07 17:33 | 54.50401 | 49.79088 | 27876 ft | 438 kts | 352° |
| 2026-05-07 17:33 | 54.53400 | 49.78368 | 27136 ft | 434 kts | 352° |
| 2026-05-07 17:33 | 54.56368 | 49.77647 | 26430 ft | 429 kts | 352° |
| 2026-05-07 17:34 | 54.59318 | 49.76927 | 25749 ft | 425 kts | 352° |
| 2026-05-07 17:34 | 54.62232 | 49.76214 | 25086 ft | 422 kts | 352° |
| 2026-05-07 17:34 | 54.65064 | 49.75024 | 24446 ft | 418 kts | 338° |
| 2026-05-07 17:34 | 54.67691 | 49.72914 | 23805 ft | 415 kts | 334° |
| 2026-05-07 17:35 | 54.70283 | 49.70745 | 23114 ft | 412 kts | 334° |
| 2026-05-07 17:35 | 54.72824 | 49.68609 | 22448 ft | 409 kts | 334° |
| 2026-05-07 17:35 | 54.75372 | 49.66457 | 21943 ft | 407 kts | 334° |
| 2026-05-07 17:35 | 54.77898 | 49.64318 | 21355 ft | 403 kts | 334° |
| 2026-05-07 17:36 | 54.80407 | 49.62186 | 20769 ft | 400 kts | 334° |
| 2026-05-07 17:36 | 54.82894 | 49.60071 | 20205 ft | 396 kts | 334° |
| 2026-05-07 17:36 | 54.85358 | 49.57976 | 19663 ft | 393 kts | 334° |
| 2026-05-07 17:36 | 54.87803 | 49.55896 | 19136 ft | 390 kts | 333° |
| 2026-05-07 17:37 | 54.90237 | 49.53821 | 18615 ft | 388 kts | 333° |
| 2026-05-07 17:37 | 54.92649 | 49.51763 | 18080 ft | 385 kts | 333° |
| 2026-05-07 17:37 | 54.95039 | 49.49719 | 17528 ft | 381 kts | 333° |
| 2026-05-07 17:37 | 54.97406 | 49.47695 | 16995 ft | 377 kts | 333° |
| 2026-05-07 17:38 | 54.99756 | 49.45686 | 16467 ft | 374 kts | 333° |
| 2026-05-07 17:38 | 55.02046 | 49.43728 | 15961 ft | 370 kts | 333° |
| 2026-05-07 17:38 | 55.04348 | 49.41755 | 15454 ft | 367 kts | 333° |
| 2026-05-07 17:38 | 55.06628 | 49.39796 | 14952 ft | 363 kts | 333° |
| 2026-05-07 17:39 | 55.08883 | 49.37856 | 14446 ft | 360 kts | 333° |
| 2026-05-07 17:39 | 55.11121 | 49.35928 | 13959 ft | 357 kts | 333° |
| 2026-05-07 17:39 | 55.13344 | 49.34010 | 13386 ft | 357 kts | 333° |
| 2026-05-07 17:39 | 55.15550 | 49.32104 | 12690 ft | 351 kts | 333° |
| 2026-05-07 17:40 | 55.17731 | 49.30215 | 12028 ft | 348 kts | 333° |
| 2026-05-07 17:40 | 55.19866 | 49.28362 | 11382 ft | 346 kts | 334° |
| 2026-05-07 17:40 | 55.22007 | 49.26502 | 10745 ft | 343 kts | 334° |
| 2026-05-07 17:40 | 55.24134 | 49.24656 | 10111 ft | 340 kts | 334° |
| 2026-05-07 17:41 | 55.26243 | 49.22827 | 9455 ft | 337 kts | 334° |
| 2026-05-07 17:41 | 55.28340 | 49.21006 | 8784 ft | 336 kts | 334° |
| 2026-05-07 17:41 | 55.30412 | 49.19203 | 8110 ft | 330 kts | 334° |
| 2026-05-07 17:41 | 55.32457 | 49.17419 | 7469 ft | 327 kts | 334° |
| 2026-05-07 17:42 | 55.34479 | 49.15648 | 6832 ft | 324 kts | 334° |
| 2026-05-07 17:42 | 55.36482 | 49.13888 | 6225 ft | 320 kts | 334° |
| 2026-05-07 17:42 | 55.38472 | 49.12137 | 6005 ft | 320 kts | 334° |
| 2026-05-07 17:42 | 55.40437 | 49.10413 | 5973 ft | 320 kts | 334° |
| 2026-05-07 17:43 | 55.42431 | 49.08664 | 5978 ft | 321 kts | 334° |
| 2026-05-07 17:43 | 55.44429 | 49.06912 | 5979 ft | 321 kts | 334° |
| 2026-05-07 17:43 | 55.46435 | 49.05152 | 5978 ft | 321 kts | 334° |
| 2026-05-07 17:43 | 55.48429 | 49.03398 | 5976 ft | 320 kts | 334° |
| 2026-05-07 17:44 | 55.50376 | 49.01680 | 5975 ft | 302 kts | 334° |
| 2026-05-07 17:44 | 55.52187 | 49.00083 | 5977 ft | 281 kts | 334° |
| 2026-05-07 17:44 | 55.53876 | 48.98592 | 5973 ft | 262 kts | 334° |
| 2026-05-07 17:44 | 55.55452 | 48.97195 | 5897 ft | 247 kts | 333° |
| 2026-05-07 17:45 | 55.56953 | 48.95867 | 5593 ft | 243 kts | 334° |
| 2026-05-07 17:45 | 55.58463 | 48.94534 | 5209 ft | 242 kts | 333° |
| 2026-05-07 17:45 | 55.59977 | 48.93192 | 4712 ft | 247 kts | 333° |
| 2026-05-07 17:45 | 55.61573 | 48.91929 | 4069 ft | 256 kts | 345° |
| 2026-05-07 17:46 | 55.63362 | 48.91754 | 3446 ft | 263 kts | 11° |
| 2026-05-07 17:46 | 55.65041 | 48.92983 | 2876 ft | 260 kts | 36° |
| 2026-05-07 17:46 | 55.66455 | 48.94736 | 2720 ft | 237 kts | 36° |
| 2026-05-07 17:46 | 55.67742 | 48.96298 | 2702 ft | 211 kts | 36° |
| 2026-05-07 17:47 | 55.68901 | 48.97693 | 2711 ft | 196 kts | 36° |
| 2026-05-07 17:47 | 55.69982 | 48.99136 | 2709 ft | 193 kts | 51° |
| 2026-05-07 17:47 | 55.70473 | 49.01254 | 2709 ft | 187 kts | 91° |
| 2026-05-07 17:47 | 55.70103 | 49.03372 | 2710 ft | 185 kts | 127° |
| 2026-05-07 17:48 | 55.69327 | 49.05133 | 2747 ft | 175 kts | 126° |
| 2026-05-07 17:48 | 55.68666 | 49.06831 | 2715 ft | 162 kts | 124° |
| 2026-05-07 17:48 | 55.68057 | 49.08453 | 2709 ft | 152 kts | 124° |
| 2026-05-07 17:48 | 55.67487 | 49.09967 | 2686 ft | 146 kts | 124° |
| 2026-05-07 17:49 | 55.66935 | 49.11461 | 2372 ft | 144 kts | 123° |
| 2026-05-07 17:49 | 55.66405 | 49.12950 | 2014 ft | 142 kts | 122° |
| 2026-05-07 17:49 | 55.65867 | 49.14382 | 1728 ft | 137 kts | 125° |
| 2026-05-07 17:49 | 55.65320 | 49.15738 | 1441 ft | 134 kts | 124° |
| 2026-05-07 17:50 | 55.64849 | 49.17115 | 1301 ft | 134 kts | 121° |
| 2026-05-07 17:50 | 55.64275 | 49.18407 | 1195 ft | 134 kts | 126° |
| 2026-05-07 17:50 | 55.63770 | 49.19806 | 1060 ft | 135 kts | 122° |
| 2026-05-07 17:50 | 55.63246 | 49.21173 | 914 ft | 135 kts | 126° |
| 2026-05-07 17:51 | 55.62700 | 49.22529 | 749 ft | 135 kts | 123° |
| 2026-05-07 17:51 | 55.62171 | 49.23898 | 566 ft | 134 kts | 125° |
| 2026-05-07 17:51 | 55.61644 | 49.25248 | 420 ft | 133 kts | 124° |
| 2026-05-07 17:51 | 55.61169 | 49.26473 | 407 ft | 100 kts | 124° |
| 2026-05-07 17:52 | 55.60875 | 49.27233 | 406 ft | 50 kts | 124° |
| 2026-05-07 17:52 | 55.60739 | 49.27596 | 408 ft | 44 kts | 124° |
| 2026-05-07 17:52 | 55.60564 | 49.28053 | 406 ft | 44 kts | 124° |
| 2026-05-07 17:52 | 55.60402 | 49.28458 | 407 ft | 30 kts | 116° |
| 2026-05-07 17:53 | 55.60461 | 49.28659 | 407 ft | 9 kts | 36° |
| 2026-05-07 17:53 | 55.60462 | 49.28661 | 407 ft | 0 kts | 36° |
| 2026-05-07 17:54 | 55.60490 | 49.28697 | 407 ft | 7 kts | 35° |
| 2026-05-07 17:54 | 55.60529 | 49.28744 | 407 ft | 7 kts | 34° |
| 2026-05-07 17:54 | 55.60569 | 49.28795 | 407 ft | 8 kts | 41° |
| 2026-05-07 17:54 | 55.60581 | 49.28900 | 407 ft | 10 kts | 91° |
| 2026-05-07 17:55 | 55.60581 | 49.28923 | 407 ft | 0 kts | 93° |
| 2026-05-07 17:55 | 55.60576 | 49.29035 | 407 ft | 16 kts | 89° |
| 2026-05-07 17:55 | 55.60644 | 49.29214 | 407 ft | 21 kts | 33° |
| 2026-05-07 17:55 | 55.60743 | 49.29341 | 407 ft | 13 kts | 35° |
| 2026-05-07 17:56 | 55.60811 | 49.29445 | 404 ft | 12 kts | 66° |
| 2026-05-07 17:56 | 55.60812 | 49.29459 | 405 ft | 3 kts | 84° |
| 2026-05-07 17:56 | 55.60782 | 49.29559 | 406 ft | 13 kts | 123° |
| 2026-05-07 17:56 | 55.60790 | 49.29667 | 407 ft | 7 kts | 40° |
| 2026-05-07 17:57 | 55.60815 | 49.29699 | 407 ft | 0 kts | 36° |
| 2026-05-07 18:32 | 55.60816 | 49.29699 | 407 ft | 0 kts | 36° |
| 2026-05-07 18:35 | 55.60815 | 49.29699 | 407 ft | 0 kts | 36° |
| 2026-05-07 18:36 | 55.60816 | 49.29699 | 407 ft | 0 kts | 36° |
| 2026-05-07 18:48 | 55.60815 | 49.29699 | 407 ft | 0 kts | 36° |
| 2026-05-07 18:50 | 55.60816 | 49.29699 | 407 ft | 0 kts | 36° |